createdAt,value
2022-11-24T00:01:08.141Z,44.80
2022-11-24T00:03:35.783Z,43.90
2022-11-24T00:06:11.098Z,46.72
2022-11-24T00:08:39.404Z,49.65
2022-11-24T00:11:11.776Z,46.28
2022-11-24T00:13:39.596Z,41.17
2022-11-24T00:16:13.538Z,40.65
2022-11-24T00:18:42.076Z,36.78
2022-11-24T00:21:09.363Z,38.47
2022-11-24T00:23:37.194Z,40.08
2022-11-24T00:26:28.238Z,40.28
2022-11-24T00:28:58.278Z,30.40
2022-11-24T00:31:27.016Z,38.67
2022-11-24T00:33:56.521Z,41.33
2022-11-24T00:36:25.622Z,41.97
2022-11-24T00:38:57.481Z,45.10
2022-11-24T00:41:25.661Z,42.20
2022-11-24T00:43:53.323Z,41.72
2022-11-24T00:46:20.921Z,45.60
2022-11-24T00:48:48.658Z,45.10
2022-11-24T00:51:17.946Z,46.75
2022-11-24T00:53:45.332Z,42.13
2022-11-24T00:56:12.628Z,31.55
2022-11-24T00:58:40.179Z,43.55
2022-11-24T01:01:12.793Z,40.35
2022-11-24T01:03:40.854Z,41.08
2022-11-24T01:06:11.681Z,42.42
2022-11-24T01:08:39.665Z,44.95
2022-11-24T01:11:22.941Z,44.00
2022-11-24T01:13:53.856Z,44.72
2022-11-24T01:16:24.410Z,39.55
2022-11-24T01:18:51.918Z,42.38
2022-11-24T01:21:19.496Z,41.95
2022-11-24T01:23:46.863Z,44.13
2022-11-24T01:26:19.737Z,43.50
2022-11-24T01:28:47.826Z,44.75
2022-11-24T01:31:16.695Z,43.78
2022-11-24T01:33:44.080Z,44.95
2022-11-24T01:36:11.243Z,44.83
2022-11-24T01:38:38.534Z,44.28
2022-11-24T01:41:13.869Z,42.92
2022-11-24T01:43:44.900Z,44.55
2022-11-24T01:46:31.502Z,33.43
2022-11-24T01:49:22.941Z,41.97
2022-11-24T01:52:10.698Z,40.13
2022-11-24T01:54:43.100Z,39.30
2022-11-24T01:57:16.646Z,39.45
2022-11-24T01:59:46.686Z,39.90
2022-11-24T02:02:16.469Z,43.58
2022-11-24T02:04:44.658Z,44.85
2022-11-24T02:07:12.318Z,42.85
2022-11-24T02:09:52.139Z,43.92
2022-11-24T02:12:19.297Z,43.75
2022-11-24T02:14:46.896Z,46.40
2022-11-24T02:17:14.176Z,45.55
2022-11-24T02:19:41.359Z,47.83
2022-11-24T02:22:17.816Z,47.70
2022-11-24T02:24:52.657Z,47.85
2022-11-24T02:27:20.251Z,47.95
2022-11-24T02:29:48.044Z,47.08
2022-11-24T02:32:16.039Z,50.70
2022-11-24T02:34:43.197Z,46.88
2022-11-24T02:37:10.318Z,47.67
2022-11-24T02:39:37.988Z,52.75
2022-11-24T02:42:11.361Z,49.05
2022-11-24T02:44:42.919Z,47.88
2022-11-24T02:47:12.313Z,49.10
2022-11-24T02:49:39.579Z,48.67
2022-11-24T02:52:07.411Z,45.42
2022-11-24T02:54:35.136Z,51.85
2022-11-24T02:57:02.380Z,53.38
2022-11-24T02:59:29.601Z,51.10
2022-11-24T03:01:56.763Z,50.20
2022-11-24T03:04:23.902Z,52.85
2022-11-24T03:06:51.061Z,48.03
2022-11-24T03:09:18.111Z,52.33
2022-11-24T03:11:45.219Z,56.25
2022-11-24T03:14:12.540Z,58.05
2022-11-24T03:16:39.646Z,53.78
2022-11-24T03:19:06.818Z,63.00
2022-11-24T03:21:33.842Z,49.75
2022-11-24T03:24:00.887Z,50.72
2022-11-24T03:26:28.122Z,55.95
2022-11-24T03:28:56.340Z,57.00
2022-11-24T03:31:24.498Z,50.53
2022-11-24T03:33:51.623Z,52.97
2022-11-24T03:36:19.221Z,52.75
2022-11-24T03:38:46.379Z,53.65
2022-11-24T03:41:14.139Z,45.08
2022-11-24T03:43:44.023Z,41.65
2022-11-24T03:46:12.582Z,40.83
2022-11-24T03:48:39.980Z,40.03
2022-11-24T03:51:07.138Z,42.00
2022-11-24T03:53:35.020Z,41.10
2022-11-24T03:56:02.647Z,42.50
2022-11-24T03:58:30.038Z,41.38
2022-11-24T04:00:57.636Z,45.30
2022-11-24T04:03:25.201Z,44.47
2022-11-24T04:05:52.378Z,43.10
2022-11-24T04:08:19.879Z,44.28
2022-11-24T04:10:51.249Z,42.53
2022-11-24T04:13:20.179Z,40.60
2022-11-24T04:15:47.525Z,40.90
2022-11-24T04:18:15.201Z,39.70
2022-11-24T04:20:43.083Z,41.20
2022-11-24T04:23:11.302Z,38.50
2022-11-24T04:25:38.702Z,39.75
2022-11-24T04:28:05.768Z,37.53
2022-11-24T04:30:32.939Z,37.25
2022-11-24T04:33:00.002Z,38.17
2022-11-24T04:35:27.181Z,37.47
2022-11-24T04:37:54.621Z,38.45
2022-11-24T04:40:21.825Z,38.78
2022-11-24T04:42:55.888Z,38.03
2022-11-24T04:45:23.899Z,38.22
2022-11-24T04:47:51.249Z,40.13
2022-11-24T04:50:18.561Z,39.30
2022-11-24T04:52:46.100Z,38.83
2022-11-24T04:55:13.801Z,38.15
2022-11-24T04:57:40.825Z,40.42
2022-11-24T05:00:09.287Z,38.92
2022-11-24T05:02:37.135Z,39.13
2022-11-24T05:05:05.943Z,38.72
2022-11-24T05:07:33.488Z,38.75
2022-11-24T05:10:19.188Z,39.65
2022-11-24T05:12:51.480Z,40.13
2022-11-24T05:15:18.701Z,39.92
2022-11-24T05:17:45.694Z,39.15
2022-11-24T05:20:12.817Z,39.88
2022-11-24T05:22:39.819Z,39.60
2022-11-24T05:25:07.154Z,40.50
2022-11-24T05:27:34.407Z,55.05
2022-11-24T05:30:01.749Z,43.17
2022-11-24T05:32:28.850Z,42.67
2022-11-24T05:34:56.875Z,42.50
2022-11-24T05:37:25.792Z,45.05
2022-11-24T05:39:54.851Z,44.38
2022-11-24T05:42:46.228Z,43.97
2022-11-24T05:45:17.448Z,40.13
2022-11-24T05:47:45.049Z,38.03
2022-11-24T05:50:13.839Z,46.88
2022-11-24T05:52:41.088Z,41.80
2022-11-24T05:55:08.838Z,42.58
2022-11-24T05:57:36.263Z,44.13
2022-11-24T06:00:05.566Z,38.67
2022-11-24T06:02:39.644Z,41.10
2022-11-24T06:05:07.119Z,36.67
2022-11-24T06:07:34.296Z,37.75
2022-11-24T06:10:01.309Z,39.75
2022-11-24T06:12:28.286Z,40.08
2022-11-24T06:14:55.307Z,38.55
2022-11-24T06:17:22.350Z,41.92
2022-11-24T06:19:51.208Z,57.00
2022-11-24T06:22:19.395Z,40.28
2022-11-24T06:24:46.824Z,39.28
2022-11-24T06:27:14.274Z,39.30
2022-11-24T06:29:41.322Z,38.80
2022-11-24T06:32:08.924Z,38.92
2022-11-24T06:34:36.567Z,37.92
2022-11-24T06:37:03.884Z,36.85
2022-11-24T06:39:31.024Z,36.28
2022-11-24T06:41:58.763Z,37.45
2022-11-24T06:44:25.742Z,35.95
2022-11-24T06:46:52.785Z,34.83
2022-11-24T06:49:19.809Z,36.67
2022-11-24T06:51:47.085Z,36.88
2022-11-24T06:54:21.067Z,48.05
2022-11-24T06:56:48.443Z,39.60
2022-11-24T06:59:20.446Z,38.72
2022-11-24T07:01:47.633Z,37.15
2022-11-24T07:04:15.121Z,38.25
2022-11-24T07:06:42.714Z,38.60
2022-11-24T07:09:11.169Z,38.00
2022-11-24T07:11:38.770Z,40.15
2022-11-24T07:14:05.823Z,39.53
2022-11-24T07:16:33.623Z,39.13
2022-11-24T07:19:01.099Z,39.67
2022-11-24T07:21:29.224Z,38.80
2022-11-24T07:23:57.400Z,43.33
2022-11-24T07:26:25.460Z,39.63
2022-11-24T07:28:52.731Z,39.65
2022-11-24T07:31:21.846Z,39.67
2022-11-24T07:33:53.309Z,40.97
2022-11-24T07:36:21.052Z,56.88
2022-11-24T07:38:48.172Z,45.47
2022-11-24T07:41:16.984Z,38.58
2022-11-24T07:43:44.162Z,37.00
2022-11-24T07:46:13.438Z,38.45
2022-11-24T07:48:40.742Z,34.78
2022-11-24T07:51:08.138Z,37.15
2022-11-24T07:53:36.033Z,34.20
2022-11-24T07:56:04.367Z,47.90
2022-11-24T07:58:33.789Z,36.10
2022-11-24T08:01:09.853Z,54.13
2022-11-24T08:03:37.405Z,41.00
2022-11-24T08:08:51.521Z,73.05
2022-11-24T08:11:18.642Z,42.10
2022-11-24T08:13:46.107Z,51.88
2022-11-24T08:16:15.283Z,39.85
2022-11-24T08:18:43.367Z,36.13
2022-11-24T08:21:14.789Z,44.40
2022-11-24T08:23:42.521Z,40.38
2022-11-24T08:26:14.034Z,38.67
2022-11-24T08:28:41.349Z,53.88
2022-11-24T08:31:14.857Z,41.03
2022-11-24T08:33:42.587Z,41.00
2022-11-24T08:36:12.391Z,37.78
2022-11-24T08:38:39.690Z,36.10
2022-11-24T08:41:10.195Z,34.50
2022-11-24T08:43:37.486Z,36.20
2022-11-24T08:46:12.584Z,37.35
2022-11-24T08:48:40.128Z,37.30
2022-11-24T08:51:12.396Z,37.33
2022-11-24T08:53:40.402Z,37.75
2022-11-24T08:56:08.863Z,37.83
2022-11-24T08:58:36.624Z,74.65
2022-11-24T09:01:09.274Z,41.63
2022-11-24T09:03:37.842Z,44.65
2022-11-24T09:06:06.225Z,55.42
2022-11-24T09:08:34.283Z,61.90
2022-11-24T09:11:10.060Z,41.08
2022-11-24T09:13:38.060Z,40.85
2022-11-24T09:16:07.307Z,34.65
2022-11-24T09:18:34.908Z,34.08
2022-11-24T09:21:12.080Z,38.00
2022-11-24T09:23:39.844Z,35.60
2022-11-24T09:26:08.963Z,40.63
2022-11-24T09:28:36.038Z,40.65
2022-11-24T09:31:04.623Z,54.22
2022-11-24T09:33:32.801Z,51.42
2022-11-24T09:35:59.958Z,39.00
2022-11-24T09:38:27.421Z,39.58
2022-11-24T09:40:57.887Z,36.97
2022-11-24T09:43:40.395Z,36.53
2022-11-24T09:46:23.766Z,38.63
2022-11-24T09:48:53.437Z,36.80
2022-11-24T09:51:24.998Z,55.47
2022-11-24T09:53:54.378Z,58.25
2022-11-24T09:56:23.368Z,43.55
2022-11-24T09:58:53.719Z,40.53
2022-11-24T10:01:28.083Z,35.20
2022-11-24T10:03:55.351Z,35.88
2022-11-24T10:06:47.177Z,38.90
2022-11-24T10:09:32.651Z,54.80
2022-11-24T10:12:24.397Z,41.22
2022-11-24T10:15:12.951Z,32.47
2022-11-24T10:17:53.403Z,42.22
2022-11-24T10:20:29.418Z,37.83
2022-11-24T10:23:19.129Z,38.95
2022-11-24T10:25:48.948Z,34.25
2022-11-24T10:28:16.585Z,35.05
2022-11-24T10:30:43.755Z,36.13
2022-11-24T10:33:30.011Z,35.47
2022-11-24T10:36:22.179Z,37.38
2022-11-24T10:38:55.538Z,37.13
2022-11-24T10:41:35.010Z,40.85
2022-11-24T10:44:02.014Z,49.03
2022-11-24T10:46:31.528Z,43.83
2022-11-24T10:49:04.656Z,46.80
2022-11-24T10:51:31.604Z,44.00
2022-11-24T10:54:02.880Z,40.65
2022-11-24T10:56:42.598Z,42.30
2022-11-24T10:59:39.635Z,36.25
2022-11-24T11:02:30.193Z,34.90
2022-11-24T11:04:57.565Z,38.78
2022-11-24T11:07:26.380Z,40.83
2022-11-24T11:10:21.343Z,50.15
2022-11-24T11:12:48.560Z,40.63
2022-11-24T11:15:31.754Z,41.53
2022-11-24T11:18:02.347Z,39.88
2022-11-24T11:20:31.990Z,48.38
2022-11-24T11:23:01.647Z,50.25
2022-11-24T11:25:33.230Z,39.47
2022-11-24T11:28:29.290Z,37.67
2022-11-24T11:31:22.234Z,45.85
2022-11-24T11:34:09.428Z,38.38
2022-11-24T11:36:45.087Z,37.40
2022-11-24T11:39:33.059Z,35.78
2022-11-24T11:42:45.443Z,36.25
2022-11-24T11:45:26.807Z,38.08
2022-11-24T11:48:02.964Z,34.45
2022-11-24T11:50:59.465Z,35.75
2022-11-24T11:53:46.556Z,37.75
2022-11-24T11:56:22.850Z,43.90
2022-11-24T11:59:27.261Z,43.80
2022-11-24T12:02:15.845Z,40.35
2022-11-24T12:04:52.636Z,64.93
2022-11-24T12:07:38.231Z,60.35
2022-11-24T12:10:11.138Z,43.83
2022-11-24T12:12:52.458Z,50.78
2022-11-24T12:15:22.408Z,48.42
2022-11-24T12:18:00.152Z,48.55
2022-11-24T12:21:01.820Z,38.25
2022-11-24T12:23:50.242Z,35.67
2022-11-24T12:26:54.700Z,41.65
2022-11-24T12:29:44.880Z,34.25
2022-11-24T12:32:49.457Z,34.45
2022-11-24T12:35:41.673Z,45.85
2022-11-24T12:38:30.940Z,40.67
2022-11-24T12:41:39.292Z,36.80
2022-11-24T12:43:56.958Z,36.75
2022-11-24T12:46:59.218Z,37.35
2022-11-24T12:49:39.132Z,39.03
2022-11-24T12:52:18.535Z,36.72
2022-11-24T12:54:45.504Z,37.65
2022-11-24T12:57:36.878Z,36.58
2022-11-24T13:00:07.589Z,35.28
2022-11-24T13:02:47.129Z,36.70
2022-11-24T13:05:26.327Z,40.20
2022-11-24T13:07:58.651Z,39.80
2022-11-24T13:10:53.726Z,40.78
2022-11-24T13:13:14.835Z,41.22
2022-11-24T13:18:57.472Z,40.65
2022-11-24T13:21:37.078Z,41.13
2022-11-24T13:24:23.722Z,40.50
2022-11-24T13:27:26.787Z,40.45
2022-11-24T13:29:54.109Z,41.80
2022-11-24T13:32:23.927Z,40.90
2022-11-24T13:34:55.194Z,42.25
2022-11-24T13:37:31.700Z,40.75
2022-11-24T13:40:23.276Z,43.95
2022-11-24T13:43:01.557Z,73.15
2022-11-24T13:45:54.841Z,64.05
2022-11-24T13:48:22.364Z,50.97
2022-11-24T13:50:49.895Z,44.88
2022-11-24T13:53:45.688Z,43.45
2022-11-24T13:56:12.705Z,42.00
2022-11-24T13:58:41.299Z,43.88
2022-11-24T14:01:29.241Z,44.22
2022-11-24T14:06:51.827Z,46.42
2022-11-24T14:09:26.977Z,44.53
2022-11-24T14:12:19.123Z,42.50
2022-11-24T14:17:14.720Z,41.95
2022-11-24T14:19:46.676Z,44.53
2022-11-24T14:22:20.233Z,44.03
2022-11-24T14:24:55.837Z,47.33
2022-11-24T14:27:36.615Z,47.15
2022-11-24T14:30:17.762Z,44.92
2022-11-24T14:33:01.978Z,43.80
2022-11-24T14:35:31.861Z,44.95
2022-11-24T14:38:03.035Z,44.72
2022-11-24T14:40:50.053Z,46.40
2022-11-24T14:43:32.587Z,46.17
2022-11-24T14:46:05.353Z,48.65
2022-11-24T14:48:52.746Z,43.97
2022-11-24T14:51:23.609Z,44.58
2022-11-24T14:54:15.233Z,44.53
2022-11-24T14:56:58.043Z,45.58
2022-11-24T14:59:27.477Z,44.00
2022-11-24T15:01:54.951Z,45.75
2022-11-24T15:07:16.801Z,46.08
2022-11-24T15:09:53.736Z,44.97
2022-11-24T15:12:41.802Z,45.60
2022-11-24T15:15:15.193Z,44.83
2022-11-24T15:17:48.226Z,48.38
2022-11-24T15:20:23.594Z,47.58
2022-11-24T15:22:52.556Z,48.00
2022-11-24T15:25:33.995Z,47.80
2022-11-24T15:28:01.441Z,46.83
2022-11-24T15:30:29.629Z,50.10
2022-11-24T15:32:58.085Z,51.58
2022-11-24T15:35:27.077Z,52.58
2022-11-24T15:37:54.128Z,50.45
2022-11-24T15:40:21.296Z,48.85
2022-11-24T15:42:53.654Z,50.92
2022-11-24T15:45:22.403Z,53.40
2022-11-24T15:47:49.475Z,49.13
2022-11-24T15:50:16.949Z,51.72
2022-11-24T15:52:44.438Z,51.78
2022-11-24T15:55:19.788Z,49.05
2022-11-24T15:57:47.134Z,49.20
2022-11-24T16:00:20.131Z,47.92
2022-11-24T16:02:47.696Z,48.03
2022-11-24T16:05:15.454Z,51.20
2022-11-24T16:07:42.668Z,50.60
2022-11-24T16:10:29.033Z,56.08
2022-11-24T16:12:56.025Z,56.80
2022-11-24T16:15:23.325Z,51.33
2022-11-24T16:17:50.243Z,53.58
2022-11-24T16:20:17.585Z,52.80
2022-11-24T16:22:44.777Z,52.05
2022-11-24T16:25:12.284Z,53.40
2022-11-24T16:27:39.458Z,52.92
2022-11-24T16:30:09.727Z,53.47
2022-11-24T16:32:36.654Z,54.25
2022-11-24T16:35:04.460Z,57.08
2022-11-24T16:37:32.207Z,55.78
2022-11-24T16:39:59.176Z,56.80
2022-11-24T16:42:26.411Z,58.85
2022-11-24T16:44:53.558Z,59.42
2022-11-24T16:47:20.693Z,57.10
2022-11-24T16:49:50.557Z,56.75
2022-11-24T16:52:18.331Z,55.42
2022-11-24T16:54:48.428Z,54.22
2022-11-24T16:57:15.819Z,53.22
2022-11-24T16:59:48.692Z,57.67
2022-11-24T17:02:16.220Z,55.03
2022-11-24T17:04:43.296Z,58.35
2022-11-24T17:07:10.379Z,59.40
2022-11-24T17:09:40.508Z,52.40
2022-11-24T17:12:07.996Z,61.47
2022-11-24T17:14:35.226Z,55.33
2022-11-24T17:19:43.883Z,60.30
2022-11-24T17:22:10.961Z,61.97
2022-11-24T17:24:37.924Z,61.67
2022-11-24T17:27:04.956Z,67.07
2022-11-24T17:29:31.862Z,69.60
2022-11-24T17:31:58.820Z,59.22
2022-11-24T17:34:25.804Z,71.22
2022-11-24T17:36:52.735Z,67.63
2022-11-24T17:39:24.512Z,71.78
2022-11-24T17:41:51.833Z,70.05
2022-11-24T17:44:19.262Z,68.90
2022-11-24T17:46:46.592Z,67.05
2022-11-24T17:49:15.258Z,62.97
2022-11-24T17:51:42.784Z,62.53
2022-11-24T17:54:44.847Z,70.00
2022-11-24T17:57:02.427Z,64.05
2022-11-24T17:59:30.228Z,69.55
2022-11-24T18:01:58.143Z,73.07
2022-11-24T18:04:26.220Z,67.45
2022-11-24T18:06:53.498Z,67.40
2022-11-24T18:09:20.825Z,68.13
2022-11-24T18:11:48.648Z,59.85
2022-11-24T18:14:15.947Z,61.67
2022-11-24T18:16:42.915Z,63.00
2022-11-24T18:19:11.329Z,67.75
2022-11-24T18:21:40.863Z,62.67
2022-11-24T18:24:09.821Z,65.68
2022-11-24T18:26:37.596Z,61.20
2022-11-24T18:29:04.904Z,67.32
2022-11-24T18:31:34.452Z,65.07
2022-11-24T18:34:02.849Z,59.53
2022-11-24T18:36:31.029Z,60.75
2022-11-24T18:39:02.381Z,59.90
2022-11-24T18:41:30.151Z,62.38
2022-11-24T18:43:57.754Z,63.58
2022-11-24T18:46:25.418Z,62.83
2022-11-24T18:48:53.487Z,62.70
2022-11-24T18:51:22.779Z,66.97
2022-11-24T18:53:54.579Z,63.50
2022-11-24T18:58:48.352Z,55.33
2022-11-24T19:01:17.818Z,55.35
2022-11-24T19:03:49.973Z,53.90
2022-11-24T19:06:20.115Z,57.03
2022-11-24T19:08:47.818Z,57.05
2022-11-24T19:11:28.433Z,51.67
2022-11-24T19:13:56.580Z,52.63
2022-11-24T19:16:24.452Z,51.97
2022-11-24T19:18:54.357Z,55.38
2022-11-24T19:21:22.217Z,56.20
2022-11-24T19:23:49.736Z,56.53
2022-11-24T19:26:16.723Z,59.70
2022-11-24T19:28:44.001Z,56.42
2022-11-24T19:31:13.809Z,55.13
2022-11-24T19:33:41.728Z,62.85
2022-11-24T19:36:11.258Z,67.88
2022-11-24T19:38:38.267Z,72.32
2022-11-24T19:41:08.081Z,66.75
2022-11-24T19:43:35.868Z,70.03
2022-11-24T19:46:10.969Z,66.15
2022-11-24T19:48:45.672Z,60.22
2022-11-24T19:51:18.365Z,62.83
2022-11-24T19:53:46.121Z,62.67
2022-11-24T19:56:14.896Z,59.25
2022-11-24T19:58:42.272Z,58.40
2022-11-24T20:01:14.537Z,60.97
2022-11-24T20:03:42.624Z,60.47
2022-11-24T20:06:12.521Z,57.38
2022-11-24T20:08:41.363Z,59.05
2022-11-24T20:11:13.708Z,76.60
2022-11-24T20:13:41.944Z,86.25
2022-11-24T20:16:11.739Z,78.75
2022-11-24T20:18:42.444Z,70.13
2022-11-24T20:21:16.324Z,72.05
2022-11-24T20:23:45.063Z,73.53
2022-11-24T20:26:15.466Z,68.65
2022-11-24T20:28:44.138Z,68.95
2022-11-24T20:31:36.815Z,63.10
2022-11-24T20:34:06.773Z,66.75
2022-11-24T20:36:36.622Z,64.50
2022-11-24T20:39:07.151Z,63.63
2022-11-24T20:41:36.403Z,64.38
2022-11-24T20:44:07.366Z,64.72
2022-11-24T20:46:37.341Z,61.28
2022-11-24T20:49:09.325Z,62.20
2022-11-24T20:51:44.797Z,68.10
2022-11-24T20:54:18.612Z,61.42
2022-11-24T20:56:49.370Z,64.88
2022-11-24T20:59:21.674Z,64.82
2022-11-24T21:01:50.977Z,64.93
2022-11-24T21:04:22.040Z,70.75
2022-11-24T21:06:51.211Z,64.85
2022-11-24T21:09:21.751Z,75.28
2022-11-24T21:11:50.398Z,81.82
2022-11-24T21:14:18.607Z,74.30
2022-11-24T21:16:46.532Z,66.97
2022-11-24T21:19:14.868Z,70.28
2022-11-24T21:21:43.810Z,68.70
2022-11-24T21:24:15.696Z,74.22
2022-11-24T21:26:48.805Z,82.88
2022-11-24T21:29:19.076Z,69.85
2022-11-24T21:31:46.278Z,75.07
2022-11-24T21:34:18.736Z,73.85
2022-11-24T21:36:46.222Z,77.03
2022-11-24T21:39:15.538Z,73.35
2022-11-24T21:41:43.319Z,67.38
2022-11-24T21:44:14.003Z,65.03
2022-11-24T21:46:45.932Z,68.57
2022-11-24T21:49:16.503Z,67.68
2022-11-24T21:51:43.443Z,66.63
2022-11-24T21:54:10.333Z,62.55
2022-11-24T21:56:37.353Z,65.38
2022-11-24T21:59:04.439Z,71.78
2022-11-24T22:01:31.705Z,67.43
2022-11-24T22:03:58.839Z,63.05
2022-11-24T22:06:25.895Z,66.45
2022-11-24T22:08:52.968Z,74.93
2022-11-24T22:11:24.438Z,67.75
2022-11-24T22:13:52.718Z,65.10
2022-11-24T22:16:22.369Z,67.90
2022-11-24T22:18:50.121Z,65.45
2022-11-24T22:21:30.875Z,63.38
2022-11-24T22:23:57.872Z,68.45
2022-11-24T22:26:25.662Z,69.55
2022-11-24T22:28:54.339Z,66.03
2022-11-24T22:31:26.461Z,66.80
2022-11-24T22:33:54.473Z,66.20
2022-11-24T22:36:23.213Z,64.82
2022-11-24T22:38:58.264Z,63.03
2022-11-24T22:41:25.985Z,65.30
2022-11-24T22:43:53.819Z,65.25
2022-11-24T22:46:24.958Z,62.67
2022-11-24T22:48:55.519Z,51.42
2022-11-24T22:51:25.182Z,64.65
2022-11-24T22:53:54.108Z,68.20
2022-11-24T22:56:21.580Z,63.92
2022-11-24T22:58:48.820Z,63.95
2022-11-24T23:01:21.117Z,65.40
2022-11-24T23:03:53.736Z,58.88
2022-11-24T23:06:23.306Z,67.70
2022-11-24T23:08:51.099Z,62.60
2022-11-24T23:11:21.319Z,62.90
2022-11-24T23:16:20.659Z,52.33
2022-11-24T23:18:52.438Z,57.53
2022-11-24T23:21:21.771Z,57.83
2022-11-24T23:23:49.890Z,58.45
2022-11-24T23:26:25.479Z,61.10
2022-11-24T23:28:52.717Z,59.15
2022-11-24T23:31:24.400Z,57.80
2022-11-24T23:36:20.180Z,57.15
2022-11-24T23:38:47.653Z,57.53
2022-11-24T23:41:17.169Z,57.65
2022-11-24T23:43:44.310Z,55.08
2022-11-24T23:46:14.266Z,60.33
2022-11-24T23:48:41.622Z,57.65
2022-11-24T23:51:13.875Z,56.75
2022-11-24T23:53:41.581Z,57.13
2022-11-24T23:56:11.759Z,55.90
2022-11-24T23:58:38.880Z,56.00
